»·PEaware :: N614FT KSEE-KAVX

N614FT :: KSEE-KAVX

FLIGHT INFORMATION

Flight Status: Arrived
Operator: Privately registered:
United States
More flights under this callsign
Pilot: Carlos A. (16805)
Aircraft: PIPER PA-31/31P NAVAJO CHIEFTAIN
(PA31)
More flights by this aircraft type
Origin: KSEE Gillespie
United States
Destination: KAVX Catalina
United States
More flights between these airports :: More routes between these airports
Route: MZB V23 OCN V208 SXC
File this flight plan on PilotEdge
Remarks: SANP1
Altitude:
(Current/Filed)
6,000ft
Speed:
(Current/Filed)
185kts
Departed: 02-Feb-23 02:17 PM
Arrived: 02-Feb-23 02:56 PM
Distance/Time
Traveled:
68nm/0:38
Distance/Time
To Go:
Arrived

Flight Plot

Page will automatically refresh every two minutes.


Map Options




Map Legend


Flown Route
Filed Route
Departure Airport
Arrival Airport
Navaid (VOR, NDB)
Fix

Horizontal Profiles

Position Reports

Time Latitude Longitude Heading Altitude Ground
Speed
02-Feb-23 14:01 32.824975 -116.970382 17 391ft 0kts
02-Feb-23 14:02 32.824977 -116.970381 17 391ft 0kts
02-Feb-23 14:03 32.824980 -116.970380 17 391ft 0kts
02-Feb-23 14:04 32.824982 -116.970380 17 391ft 0kts
02-Feb-23 14:05 32.824985 -116.970379 17 391ft 0kts
02-Feb-23 14:06 32.824987 -116.970378 17 391ft 0kts
02-Feb-23 14:07 32.824990 -116.970377 17 391ft 0kts
02-Feb-23 14:08 32.824992 -116.970376 17 391ft 0kts
02-Feb-23 14:09 32.824985 -116.970378 12 391ft 0kts
02-Feb-23 14:10 32.825461 -116.969778 101 391ft 10kts
02-Feb-23 14:11 32.824964 -116.965325 18 391ft 6kts
02-Feb-23 14:12 32.825989 -116.965049 13 391ft 0kts
02-Feb-23 14:13 32.825990 -116.965048 13 391ft 0kts
02-Feb-23 14:14 32.825992 -116.965048 13 391ft 0kts
02-Feb-23 14:15 32.826418 -116.964959 7 391ft 8kts
02-Feb-23 14:16 32.828849 -116.975837 283 813ft 81kts
02-Feb-23 14:17 32.850387 -116.993359 311 2297ft 94kts
02-Feb-23 14:18 32.875323 -117.011420 327 3571ft 102kts
02-Feb-23 14:19 32.896689 -117.034751 310 4743ft 105kts
02-Feb-23 14:20 32.917135 -117.061407 312 5828ft 123kts
02-Feb-23 14:21 32.948223 -117.099491 315 5983ft 185kts
02-Feb-23 14:22 32.985674 -117.143702 315 6045ft 198kts
02-Feb-23 14:23 33.028193 -117.187851 317 5961ft 202kts
02-Feb-23 14:24 33.068685 -117.234347 315 5944ft 202kts
02-Feb-23 14:25 33.106560 -117.284292 308 6064ft 203kts
02-Feb-23 14:26 33.148235 -117.328981 318 5962ft 202kts
02-Feb-23 14:27 33.189400 -117.376808 315 5750ft 213kts
02-Feb-23 14:28 33.221956 -117.430816 289 5980ft 198kts
02-Feb-23 14:29 33.243709 -117.492041 293 5995ft 205kts
02-Feb-23 14:30 33.256736 -117.557778 287 5947ft 205kts
02-Feb-23 14:31 33.267672 -117.625147 280 5757ft 207kts
02-Feb-23 14:32 33.279243 -117.693079 277 5336ft 212kts
02-Feb-23 14:33 33.282632 -117.763714 274 4741ft 212kts
02-Feb-23 14:34 33.285373 -117.826501 271 4244ft 210kts
02-Feb-23 14:35 33.291991 -117.895528 277 3888ft 202kts
02-Feb-23 14:36 33.297088 -117.962162 277 3666ft 203kts
02-Feb-23 14:37 33.303516 -118.027279 278 3832ft 195kts
02-Feb-23 14:38 33.311260 -118.092192 279 3662ft 197kts
02-Feb-23 14:39 33.319154 -118.156503 280 3682ft 194kts
02-Feb-23 14:40 33.330239 -118.219464 297 3491ft 201kts
02-Feb-23 14:41 33.351968 -118.276095 286 3874ft 197kts
02-Feb-23 14:42 33.365023 -118.338736 295 3906ft 197kts
02-Feb-23 14:43 33.395452 -118.389218 332 3724ft 196kts
02-Feb-23 14:44 33.447343 -118.406393 344 3772ft 195kts
02-Feb-23 14:45 33.497556 -118.401926 5 3721ft 166kts
02-Feb-23 14:46 33.542618 -118.402714 317 3249ft 151kts
02-Feb-23 14:47 33.571844 -118.435677 336 2582ft 116kts
02-Feb-23 14:48 33.576350 -118.412042 139 2305ft 128kts
02-Feb-23 14:50 33.542393 -118.397450 184 2592ft 141kts
02-Feb-23 14:51 33.503230 -118.400077 184 2505ft 162kts
02-Feb-23 14:52 33.464438 -118.403508 186 2157ft 109kts
02-Feb-23 14:53 33.441296 -118.385469 140 2338ft 103kts
02-Feb-23 14:54 33.420664 -118.382014 271 2204ft 106kts
02-Feb-23 14:55 33.408133 -118.410454 240 1660ft 93kts
02-Feb-23 14:56 33.403769 -118.417009 116 1606ft 2kts
02-Feb-23 14:57 33.403559 -118.414861 319 1606ft 0kts
02-Feb-23 14:59 33.675603 -117.871261 22 60ft 0kts

Navigation Log

Ident Type
Flight plan parsing failed, navigation log unavailable